Time;durP1;ratioP1;P1;durP2;ratioP2;P2;SDS_P1;SDS_P2;PMS_P1;PMS_P2;Temp;Humidity;BMP_temperature;BMP_pressure;BME280_temperature;BME280_humidity;BME280_pressure;Samples;Min_cycle;Max_cycle;Signal;HPM_P1;HPM_P2
2022/12/21 00:00:51;;;;;;;0.73;0.73;;;;;;;;;;5016335;28;20050;-89
2022/12/21 00:03:17;;;;;;;0.88;0.88;;;;;;;;;;5014909;28;20056;-89
2022/12/21 00:05:45;;;;;;;1.48;1.48;;;;;;;;;;5027703;28;20045;-89
2022/12/21 00:08:12;;;;;;;2.80;2.45;;;;;;;;;;5033775;28;20458;-88
2022/12/21 00:10:38;;;;;;;0.95;0.95;;;;;;;;;;5032671;28;20045;-88
2022/12/21 00:13:05;;;;;;;1.40;1.38;;;;;;;;;;5032829;28;20049;-88
2022/12/21 00:15:31;;;;;;;2.17;2.08;;;;;;;;;;5032502;28;20107;-88
2022/12/21 00:17:58;;;;;;;2.47;2.38;;;;;;;;;;5032527;28;20100;-88
2022/12/21 00:20:25;;;;;;;1.15;1.15;;;;;;;;;;5032673;28;20123;-88
2022/12/21 00:22:52;;;;;;;0.57;0.57;;;;;;;;;;5032072;28;20056;-88
2022/12/21 00:25:19;;;;;;;1.08;1.08;;;;;;;;;;5032443;28;20050;-88
2022/12/21 00:27:45;;;;;;;1.38;1.38;;;;;;;;;;5032336;28;20100;-88
2022/12/21 00:30:12;;;;;;;0.55;0.55;;;;;;;;;;5032122;28;20049;-88
2022/12/21 00:32:38;;;;;;;1.70;1.63;;;;;;;;;;5032470;28;20049;-88
2022/12/21 00:35:05;;;;;;;1.92;1.77;;;;;;;;;;5026891;28;20045;-87
2022/12/21 00:37:32;;;;;;;2.15;1.90;;;;;;;;;;5012393;28;20198;-88
2022/12/21 00:40:00;;;;;;;1.15;1.10;;;;;;;;;;5012654;28;20104;-88
2022/12/21 00:42:26;;;;;;;0.75;0.75;;;;;;;;;;5012456;28;20046;-88
2022/12/21 00:44:53;;;;;;;3.40;3.25;;;;;;;;;;5012600;28;20050;-88
2022/12/21 00:47:19;;;;;;;1.50;1.30;;;;;;;;;;5012499;28;20053;-88
2022/12/21 00:49:46;;;;;;;1.30;1.27;;;;;;;;;;5012612;28;20053;-88
2022/12/21 00:52:12;;;;;;;1.33;1.23;;;;;;;;;;5012529;28;20046;-88
2022/12/21 00:54:39;;;;;;;0.43;0.43;;;;;;;;;;5012341;28;20046;-88
2022/12/21 00:57:06;;;;;;;15.25;2.80;;;;;;;;;;5041450;28;20510;-88
2022/12/21 00:59:33;;;;;;;2.90;2.60;;;;;;;;;;5039377;28;20045;-88
2022/12/21 01:02:00;;;;;;;3.53;3.33;;;;;;;;;;5031994;28;20100;-88
2022/12/21 01:04:26;;;;;;;0.82;0.82;;;;;;;;;;5031895;28;20103;-88
2022/12/21 01:06:53;;;;;;;1.65;1.58;;;;;;;;;;5031696;28;20402;-88
2022/12/21 01:09:19;;;;;;;0.45;0.43;;;;;;;;;;5035742;28;20046;-88
2022/12/21 01:11:45;;;;;;;4.28;1.58;;;;;;;;;;5035887;28;20107;-88
2022/12/21 01:14:13;;;;;;;1.70;1.63;;;;;;;;;;5035337;28;20049;-88
2022/12/21 01:16:40;;;;;;;1.52;1.45;;;;;;;;;;5035626;28;20045;-89
2022/12/21 01:19:07;;;;;;;2.80;1.67;;;;;;;;;;5035859;28;20048;-89
2022/12/21 01:21:35;;;;;;;1.70;1.60;;;;;;;;;;5035864;28;20049;-88
2022/12/21 01:24:01;;;;;;;1.10;1.10;;;;;;;;;;5035386;28;20045;-88
2022/12/21 01:26:28;;;;;;;3.97;3.80;;;;;;;;;;5021495;28;20050;-88
2022/12/21 01:28:55;;;;;;;2.17;2.08;;;;;;;;;;5015811;28;20050;-88
2022/12/21 01:31:23;;;;;;;0.65;0.65;;;;;;;;;;5015561;28;20081;-88
2022/12/21 01:33:50;;;;;;;1.02;1.02;;;;;;;;;;5015630;28;20049;-88
2022/12/21 01:36:17;;;;;;;0.57;0.57;;;;;;;;;;5015296;28;20492;-88
2022/12/21 01:38:45;;;;;;;1.60;1.50;;;;;;;;;;5015497;28;20116;-88
2022/12/21 01:41:13;;;;;;;1.75;1.65;;;;;;;;;;5015635;28;20455;-88
2022/12/21 01:43:41;;;;;;;1.90;1.80;;;;;;;;;;5015274;28;20100;-88
2022/12/21 01:46:10;;;;;;;0.45;0.45;;;;;;;;;;5015683;28;20048;-89
2022/12/21 01:48:40;;;;;;;1.08;1.08;;;;;;;;;;5015305;28;20049;-88
2022/12/21 01:51:07;;;;;;;0.88;0.88;;;;;;;;;;5014920;28;20462;-88
2022/12/21 01:53:36;;;;;;;1.17;1.15;;;;;;;;;;5015146;28;20053;-88
2022/12/21 01:56:04;;;;;;;1.25;1.23;;;;;;;;;;5015131;28;20064;-88
2022/12/21 01:58:31;;;;;;;1.77;1.67;;;;;;;;;;5014769;28;20053;-88
2022/12/21 02:00:59;;;;;;;0.70;0.70;;;;;;;;;;5014912;28;20092;-88
2022/12/21 02:03:28;;;;;;;0.82;0.82;;;;;;;;;;5015083;28;20071;-88
2022/12/21 02:05:58;;;;;;;1.65;1.55;;;;;;;;;;5014681;28;20510;-88
2022/12/21 02:08:24;;;;;;;1.73;1.63;;;;;;;;;;5014761;28;20045;-88
2022/12/21 02:10:52;;;;;;;1.15;1.10;;;;;;;;;;5015043;28;20046;-88
2022/12/21 02:13:18;;;;;;;0.80;0.80;;;;;;;;;;5014656;28;20112;-88
2022/12/21 02:15:56;;;;;;;1.70;1.60;;;;;;;;;;5014588;28;20528;-88
2022/12/21 02:18:28;;;;;;;2.00;1.85;;;;;;;;;;5014690;28;20050;-88
2022/12/21 02:21:15;;;;;;;1.65;1.55;;;;;;;;;;5014053;28;20050;-88
2022/12/21 02:24:06;;;;;;;2.40;2.30;;;;;;;;;;5009175;28;20458;-88
2022/12/21 02:26:51;;;;;;;2.55;2.45;;;;;;;;;;4994614;28;20053;-88
2022/12/21 02:29:35;;;;;;;0.80;0.80;;;;;;;;;;5014350;28;20113;-88
2022/12/21 02:32:10;;;;;;;2.22;2.08;;;;;;;;;;5014238;28;20069;-88
2022/12/21 02:34:42;;;;;;;1.38;1.30;;;;;;;;;;5014320;28;20104;-88
2022/12/21 02:37:13;;;;;;;4.47;1.73;;;;;;;;;;5014228;28;20058;-88
2022/12/21 02:39:44;;;;;;;2.13;2.03;;;;;;;;;;5014395;28;20050;-88
2022/12/21 02:44:12;;;;;;;1.05;1.02;;;;;;;;;;5014734;28;20468;-88
2022/12/21 02:45:04;;;;;;;2.60;2.42;;;;;;;;;;5013962;28;20077;-88
2022/12/21 02:47:35;;;;;;;2.60;2.45;;;;;;;;;;5014515;28;20053;-88
2022/12/21 02:50:03;;;;;;;2.47;2.05;;;;;;;;;;5013833;28;20049;-89
2022/12/21 02:52:33;;;;;;;0.63;0.63;;;;;;;;;;5014208;28;20454;-89
2022/12/21 02:55:01;;;;;;;1.70;1.60;;;;;;;;;;5014273;28;20073;-89
2022/12/21 02:57:31;;;;;;;1.58;1.48;;;;;;;;;;5014262;28;20046;-89
2022/12/21 02:59:58;;;;;;;1.70;1.65;;;;;;;;;;5014353;28;20046;-89
2022/12/21 03:02:32;;;;;;;0.85;0.85;;;;;;;;;;5014161;28;20721;-88
2022/12/21 03:05:12;;;;;;;0.95;0.95;;;;;;;;;;5013755;28;20050;-89
2022/12/21 03:07:46;;;;;;;2.45;2.10;;;;;;;;;;5014179;28;20050;-89
2022/12/21 03:10:19;;;;;;;1.52;1.48;;;;;;;;;;5013786;28;20175;-89
2022/12/21 03:12:53;;;;;;;1.77;1.73;;;;;;;;;;5013994;28;20053;-89
2022/12/21 03:15:20;;;;;;;2.53;2.40;;;;;;;;;;5013634;28;20049;-89
2022/12/21 03:17:53;;;;;;;2.20;2.10;;;;;;;;;;5013729;28;20466;-89
2022/12/21 03:20:24;;;;;;;1.02;0.95;;;;;;;;;;5013433;28;20050;-88
2022/12/21 03:22:53;;;;;;;1.90;1.80;;;;;;;;;;5013570;28;20050;-88
2022/12/21 03:25:22;;;;;;;0.70;0.70;;;;;;;;;;5013772;28;20451;-88
2022/12/21 03:27:51;;;;;;;1.30;1.30;;;;;;;;;;5013332;28;20081;-88
2022/12/21 03:30:19;;;;;;;1.05;1.05;;;;;;;;;;5013133;28;20052;-89
2022/12/21 03:32:47;;;;;;;1.20;1.20;;;;;;;;;;5013096;28;20049;-89
2022/12/21 03:35:18;;;;;;;2.85;2.20;;;;;;;;;;5013124;28;20104;-89
2022/12/21 03:37:47;;;;;;;0.82;0.82;;;;;;;;;;5022606;28;20054;-89
2022/12/21 03:40:16;;;;;;;1.65;1.55;;;;;;;;;;5032827;28;20049;-89
2022/12/21 03:42:46;;;;;;;2.55;2.45;;;;;;;;;;5032947;28;20166;-89
2022/12/21 03:45:14;;;;;;;1.58;1.48;;;;;;;;;;5032792;28;20049;-89
2022/12/21 03:47:43;;;;;;;1.40;1.35;;;;;;;;;;5033064;28;20053;-89
2022/12/21 03:50:13;;;;;;;2.25;2.05;;;;;;;;;;5033119;28;20627;-89
2022/12/21 03:52:41;;;;;;;1.58;1.58;;;;;;;;;;5032808;28;20045;-90
2022/12/21 03:55:12;;;;;;;2.33;1.52;;;;;;;;;;5032683;28;20049;-89
2022/12/21 03:57:39;;;;;;;0.57;0.57;;;;;;;;;;5033142;28;20103;-89
2022/12/21 04:00:06;;;;;;;2.63;2.53;;;;;;;;;;5032792;28;20458;-90
2022/12/21 04:02:37;;;;;;;0.88;0.85;;;;;;;;;;5032827;28;20099;-90
2022/12/21 04:05:05;;;;;;;1.38;1.38;;;;;;;;;;5033086;28;20049;-89
2022/12/21 04:07:33;;;;;;;1.10;0.90;;;;;;;;;;5033191;28;20045;-89
2022/12/21 04:10:01;;;;;;;3.25;3.03;;;;;;;;;;5032800;28;20053;-88
2022/12/21 04:12:38;;;;;;;1.67;1.58;;;;;;;;;;5032751;28;20049;-89
2022/12/21 04:15:05;;;;;;;1.50;1.42;;;;;;;;;;5032778;28;20049;-89
2022/12/21 04:17:31;;;;;;;1.25;1.15;;;;;;;;;;5032604;28;20049;-89
2022/12/21 04:19:59;;;;;;;1.25;1.23;;;;;;;;;;5033066;28;20064;-89
2022/12/21 04:28:09;;;;;;;3.75;2.20;;;;;;;;;;4971295;28;20054;-89
2022/12/21 04:30:37;;;;;;;1.08;1.02;;;;;;;;;;4971439;28;20105;-88
2022/12/21 04:33:03;;;;;;;2.67;2.58;;;;;;;;;;4971380;28;20473;-89
2022/12/21 04:35:30;;;;;;;1.08;1.08;;;;;;;;;;4971653;28;20120;-88
2022/12/21 04:37:55;;;;;;;2.63;2.38;;;;;;;;;;4971334;28;20051;-88
2022/12/21 04:40:22;;;;;;;1.85;1.75;;;;;;;;;;4971273;28;20105;-89
2022/12/21 04:42:48;;;;;;;1.45;1.40;;;;;;;;;;4973085;28;20054;-88
2022/12/21 04:45:16;;;;;;;0.63;0.63;;;;;;;;;;4975223;28;20105;-88
2022/12/21 04:47:43;;;;;;;0.77;0.77;;;;;;;;;;4962805;28;20055;-89
2022/12/21 04:50:10;;;;;;;1.58;1.52;;;;;;;;;;4955919;29;20102;-89
2022/12/21 04:52:37;;;;;;;0.80;0.80;;;;;;;;;;4955855;29;20047;-89
2022/12/21 04:55:04;;;;;;;3.10;3.00;;;;;;;;;;4955787;29;20106;-90
2022/12/21 04:57:30;;;;;;;1.67;1.60;;;;;;;;;;4955751;29;20110;-89
2022/12/21 04:59:57;;;;;;;3.08;2.97;;;;;;;;;;4955515;29;20102;-88
2022/12/21 05:02:25;;;;;;;1.95;1.83;;;;;;;;;;4955933;29;20055;-88
2022/12/21 05:04:51;;;;;;;2.22;1.52;;;;;;;;;;4991969;28;20100;-88
2022/12/21 05:07:18;;;;;;;1.58;1.50;;;;;;;;;;5015958;28;20058;-88
2022/12/21 05:09:45;;;;;;;1.27;1.27;;;;;;;;;;5015848;28;20053;-87
2022/12/21 05:12:11;;;;;;;1.42;1.33;;;;;;;;;;5016053;28;20454;-89
2022/12/21 05:14:38;;;;;;;1.23;1.23;;;;;;;;;;5016212;28;20049;-89
2022/12/21 05:17:04;;;;;;;2.28;2.05;;;;;;;;;;5016061;28;20041;-89
2022/12/21 05:19:32;;;;;;;2.63;2.28;;;;;;;;;;5015847;28;20062;-89
2022/12/21 05:21:58;;;;;;;1.20;1.17;;;;;;;;;;5016072;28;20053;-89
2022/12/21 05:24:25;;;;;;;1.23;1.23;;;;;;;;;;5015666;28;20096;-89
2022/12/21 05:26:51;;;;;;;0.93;0.90;;;;;;;;;;5015738;28;20112;-88
2022/12/21 05:29:18;;;;;;;1.88;1.77;;;;;;;;;;5015913;28;20057;-88
2022/12/21 05:31:44;;;;;;;1.70;1.67;;;;;;;;;;5016155;28;20046;-89
2022/12/21 05:34:11;;;;;;;1.13;0.95;;;;;;;;;;5015774;28;20112;-89
2022/12/21 05:36:39;;;;;;;2.17;1.92;;;;;;;;;;5015683;28;20116;-89
2022/12/21 05:39:05;;;;;;;2.03;1.92;;;;;;;;;;5015473;28;20545;-89
2022/12/21 05:41:32;;;;;;;1.55;1.45;;;;;;;;;;5015982;28;20096;-89
2022/12/21 05:43:58;;;;;;;3.20;1.75;;;;;;;;;;5015712;28;20050;-89
2022/12/21 05:46:25;;;;;;;1.73;1.63;;;;;;;;;;5015407;28;20478;-88
2022/12/21 05:48:51;;;;;;;2.30;2.20;;;;;;;;;;5034301;28;20114;-89
2022/12/21 05:51:18;;;;;;;0.82;0.82;;;;;;;;;;5035071;28;20203;-87
2022/12/21 05:53:45;;;;;;;0.65;0.65;;;;;;;;;;5034257;28;20560;-88
2022/12/21 05:56:12;;;;;;;6.55;2.63;;;;;;;;;;5034703;28;20136;-88
2022/12/21 05:58:39;;;;;;;3.20;1.75;;;;;;;;;;5034918;28;20099;-88
2022/12/21 06:01:06;;;;;;;0.90;0.90;;;;;;;;;;5035122;28;20458;-88
2022/12/21 06:03:32;;;;;;;2.58;2.45;;;;;;;;;;5034642;28;20123;-85
2022/12/21 06:06:03;;;;;;;3.00;2.65;;;;;;;;;;5034011;28;20560;-84
2022/12/21 06:08:31;;;;;;;1.27;1.25;;;;;;;;;;5034000;28;20095;-85
2022/12/21 06:11:03;;;;;;;2.78;2.55;;;;;;;;;;5034181;28;20049;-86
2022/12/21 06:13:29;;;;;;;1.77;1.67;;;;;;;;;;5034685;28;20560;-87
2022/12/21 06:15:55;;;;;;;3.35;3.10;;;;;;;;;;5034598;28;20462;-87
2022/12/21 06:18:22;;;;;;;1.23;1.17;;;;;;;;;;5034052;28;20049;-86
2022/12/21 06:20:51;;;;;;;2.35;2.22;;;;;;;;;;5034356;28;20104;-87
2022/12/21 06:23:18;;;;;;;1.55;1.52;;;;;;;;;;5034335;28;20191;-87
2022/12/21 06:25:44;;;;;;;2.85;2.60;;;;;;;;;;5033966;28;20057;-87
2022/12/21 06:28:12;;;;;;;0.98;0.98;;;;;;;;;;5033847;28;20053;-87
2022/12/21 06:30:38;;;;;;;1.67;1.58;;;;;;;;;;5033861;28;20049;-87
2022/12/21 06:33:05;;;;;;;3.33;3.15;;;;;;;;;;5031592;28;20454;-86
2022/12/21 06:35:33;;;;;;;1.70;1.60;;;;;;;;;;5023271;28;20091;-87
2022/12/21 06:37:59;;;;;;;1.13;1.13;;;;;;;;;;5033647;28;20065;-87
2022/12/21 06:40:26;;;;;;;1.15;1.08;;;;;;;;;;5033748;28;20057;-87
2022/12/21 06:42:52;;;;;;;1.52;1.42;;;;;;;;;;5033638;28;20049;-86
2022/12/21 06:45:20;;;;;;;2.45;2.35;;;;;;;;;;5033137;28;20549;-86
2022/12/21 06:47:47;;;;;;;1.70;1.60;;;;;;;;;;5033511;28;20100;-86
2022/12/21 06:50:13;;;;;;;5.45;5.20;;;;;;;;;;5033857;28;20442;-87
2022/12/21 06:52:40;;;;;;;0.93;0.93;;;;;;;;;;5033649;28;20057;-87
2022/12/21 06:55:07;;;;;;;0.77;0.77;;;;;;;;;;5033267;28;20132;-87
2022/12/21 06:57:33;;;;;;;1.20;1.20;;;;;;;;;;5033770;28;20045;-86
2022/12/21 07:00:00;;;;;;;1.88;1.60;;;;;;;;;;5033605;28;20045;-86
2022/12/21 07:02:27;;;;;;;4.50;4.25;;;;;;;;;;5031870;28;20049;-87
2022/12/21 07:04:54;;;;;;;1.15;1.15;;;;;;;;;;5033089;28;20514;-87
2022/12/21 07:07:20;;;;;;;2.08;1.98;;;;;;;;;;5032806;28;20491;-87
2022/12/21 07:09:47;;;;;;;1.20;1.20;;;;;;;;;;5033539;28;20128;-87
2022/12/21 07:12:13;;;;;;;4.05;3.80;;;;;;;;;;5032501;28;20061;-87
2022/12/21 07:14:40;;;;;;;2.42;2.30;;;;;;;;;;5013806;28;20096;-87
2022/12/21 07:17:06;;;;;;;2.35;1.85;;;;;;;;;;5012938;28;20092;-86
2022/12/21 07:19:35;;;;;;;3.70;2.55;;;;;;;;;;5015198;28;20120;-87
2022/12/21 07:22:01;;;;;;;2.38;2.20;;;;;;;;;;5014121;28;20092;-87
2022/12/21 07:24:28;;;;;;;1.98;1.88;;;;;;;;;;5015749;28;20089;-87
2022/12/21 07:26:55;;;;;;;1.58;1.48;;;;;;;;;;5023342;28;20061;-88
2022/12/21 07:29:21;;;;;;;2.25;2.15;;;;;;;;;;5019418;28;20053;-87
2022/12/21 07:31:48;;;;;;;5.43;5.10;;;;;;;;;;5013227;28;20384;-88
2022/12/21 07:34:14;;;;;;;22.85;1.98;;;;;;;;;;5013441;28;20116;-89
2022/12/21 07:36:42;;;;;;;4.63;2.05;;;;;;;;;;5013136;28;20084;-88
2022/12/21 07:39:09;;;;;;;1.38;1.35;;;;;;;;;;5014079;28;20058;-88
2022/12/21 07:41:35;;;;;;;4.85;2.58;;;;;;;;;;5050701;28;20126;-87
2022/12/21 07:44:02;;;;;;;1.95;1.83;;;;;;;;;;5046142;28;20100;-88
2022/12/21 07:46:28;;;;;;;2.55;2.30;;;;;;;;;;5032894;28;20049;-88
2022/12/21 07:48:55;;;;;;;10.88;6.63;;;;;;;;;;5032604;28;20087;-88
2022/12/21 07:51:21;;;;;;;3.95;3.75;;;;;;;;;;5032609;28;20107;-89
2022/12/21 07:53:49;;;;;;;3.45;2.88;;;;;;;;;;5033104;28;20087;-89
2022/12/21 07:56:16;;;;;;;3.35;3.13;;;;;;;;;;5032661;28;20135;-88
2022/12/21 07:58:43;;;;;;;2.53;2.42;;;;;;;;;;5031866;28;20398;-88
2022/12/21 08:01:11;;;;;;;2.88;2.63;;;;;;;;;;5040856;28;20041;-89
2022/12/21 08:03:38;;;;;;;3.97;3.70;;;;;;;;;;5021988;28;20100;-88
2022/12/21 08:06:06;;;;;;;5.05;4.13;;;;;;;;;;5014505;28;20111;-88
2022/12/21 08:08:32;;;;;;;3.38;3.17;;;;;;;;;;5052238;28;20053;-88
2022/12/21 08:11:01;;;;;;;4.68;3.38;;;;;;;;;;5049568;28;20457;-87
2022/12/21 08:13:27;;;;;;;4.20;3.95;;;;;;;;;;5024100;28;20084;-88
2022/12/21 08:15:58;;;;;;;4.13;3.20;;;;;;;;;;5038911;28;20049;-89
2022/12/21 08:18:25;;;;;;;2.50;2.38;;;;;;;;;;5030181;28;20053;-88
2022/12/21 08:20:53;;;;;;;4.60;4.35;;;;;;;;;;5032340;28;20104;-88
2022/12/21 08:23:20;;;;;;;8.90;7.35;;;;;;;;;;5043216;28;20469;-87
2022/12/21 08:25:47;;;;;;;3.05;2.80;;;;;;;;;;5037181;28;20053;-87
2022/12/21 08:28:15;;;;;;;2.53;2.25;;;;;;;;;;5032257;28;20053;-88
2022/12/21 08:30:42;;;;;;;8.57;5.20;;;;;;;;;;5029607;28;20076;-88
2022/12/21 08:33:09;;;;;;;5.57;3.88;;;;;;;;;;5032009;28;20053;-88
2022/12/21 08:35:36;;;;;;;2.25;2.15;;;;;;;;;;5041597;28;20054;-88
2022/12/21 08:38:02;;;;;;;2.95;2.83;;;;;;;;;;5028930;28;20061;-88
2022/12/21 08:40:29;;;;;;;1.95;1.85;;;;;;;;;;5012488;28;20057;-88
2022/12/21 08:42:55;;;;;;;2.58;2.38;;;;;;;;;;5012203;28;20104;-88
2022/12/21 08:45:23;;;;;;;3.88;3.58;;;;;;;;;;5011952;28;20415;-88
2022/12/21 08:47:50;;;;;;;2.67;2.53;;;;;;;;;;5012521;28;20050;-88
2022/12/21 08:50:16;;;;;;;2.38;2.25;;;;;;;;;;5048154;28;20560;-89
2022/12/21 08:52:43;;;;;;;2.45;2.35;;;;;;;;;;5037636;28;20045;-88
2022/12/21 08:55:09;;;;;;;2.85;2.70;;;;;;;;;;5051367;28;20068;-88
2022/12/21 08:57:36;;;;;;;5.25;4.78;;;;;;;;;;5051872;28;20045;-88
2022/12/21 09:00:03;;;;;;;5.45;3.80;;;;;;;;;;5031217;28;20053;-88
2022/12/21 09:02:31;;;;;;;3.08;2.88;;;;;;;;;;5026307;28;20049;-87
2022/12/21 09:04:57;;;;;;;9.90;2.72;;;;;;;;;;5013309;28;20046;-87
2022/12/21 09:07:23;;;;;;;5.22;3.25;;;;;;;;;;5017555;28;20050;-88
2022/12/21 09:09:50;;;;;;;4.90;4.65;;;;;;;;;;5015741;28;20132;-88
2022/12/21 09:12:16;;;;;;;1.90;1.80;;;;;;;;;;5036599;28;20119;-87
2022/12/21 09:14:43;;;;;;;2.70;2.58;;;;;;;;;;5018510;28;20050;-87
2022/12/21 09:17:10;;;;;;;5.03;4.70;;;;;;;;;;5031556;28;20053;-87
2022/12/21 09:19:39;;;;;;;3.42;3.22;;;;;;;;;;5037718;28;20046;-88
2022/12/21 09:22:05;;;;;;;4.07;3.55;;;;;;;;;;5031997;28;20136;-87
2022/12/21 09:24:32;;;;;;;5.35;5.05;;;;;;;;;;5031885;28;20119;-87
2022/12/21 09:26:59;;;;;;;2.03;1.92;;;;;;;;;;5032084;28;20049;-87
2022/12/21 09:29:26;;;;;;;4.18;3.67;;;;;;;;;;5020925;28;20050;-88
2022/12/21 09:31:52;;;;;;;5.53;5.10;;;;;;;;;;5038655;28;20498;-88
2022/12/21 09:34:19;;;;;;;7.15;6.63;;;;;;;;;;5034784;28;20450;-88
2022/12/21 09:36:47;;;;;;;5.30;4.88;;;;;;;;;;5041204;28;20045;-88
2022/12/21 09:39:13;;;;;;;6.22;5.22;;;;;;;;;;5054397;28;20159;-86
2022/12/21 09:41:46;;;;;;;2.60;2.40;;;;;;;;;;5053657;28;20052;-86
2022/12/21 09:44:20;;;;;;;5.85;5.28;;;;;;;;;;5035769;28;20480;-87
2022/12/21 09:46:47;;;;;;;5.90;5.38;;;;;;;;;;5014766;28;20050;-87
2022/12/21 09:49:16;;;;;;;5.47;5.10;;;;;;;;;;5022891;28;20096;-87
2022/12/21 09:51:45;;;;;;;1.83;1.70;;;;;;;;;;5028479;28;20045;-86
2022/12/21 09:54:16;;;;;;;9.35;6.55;;;;;;;;;;5026908;28;20071;-86
2022/12/21 09:56:44;;;;;;;8.93;4.65;;;;;;;;;;5018244;28;20052;-86
2022/12/21 09:59:13;;;;;;;4.13;3.90;;;;;;;;;;5027829;28;20073;-86
2022/12/21 10:01:43;;;;;;;6.18;5.72;;;;;;;;;;5041644;28;20052;-87
2022/12/21 10:04:21;;;;;;;4.70;4.30;;;;;;;;;;5028380;28;20574;-87
2022/12/21 10:07:02;;;;;;;3.92;3.40;;;;;;;;;;5027345;28;20048;-87
2022/12/21 10:09:36;;;;;;;5.50;3.40;;;;;;;;;;5034446;28;20084;-87
2022/12/21 10:12:11;;;;;;;4.07;3.38;;;;;;;;;;5036482;28;20092;-87
2022/12/21 10:14:42;;;;;;;4.90;4.60;;;;;;;;;;5033506;28;20563;-87
2022/12/21 10:17:12;;;;;;;3.17;2.72;;;;;;;;;;5039226;28;20057;-87
2022/12/21 10:19:43;;;;;;;4.47;4.18;;;;;;;;;;5023345;28;20096;-88
2022/12/21 10:22:14;;;;;;;2.25;2.13;;;;;;;;;;5016380;28;20057;-88
2022/12/21 10:24:44;;;;;;;5.10;3.50;;;;;;;;;;5053542;28;20056;-88
2022/12/21 10:27:14;;;;;;;3.25;3.05;;;;;;;;;;5013922;28;20100;-87
2022/12/21 10:29:42;;;;;;;5.15;3.53;;;;;;;;;;5030992;28;20042;-87
2022/12/21 10:32:11;;;;;;;4.85;4.45;;;;;;;;;;5051415;28;20049;-87
2022/12/21 10:34:40;;;;;;;2.45;2.33;;;;;;;;;;5043635;28;20103;-88
2022/12/21 10:37:12;;;;;;;7.07;4.10;;;;;;;;;;5033611;28;20060;-87
2022/12/21 10:39:38;;;;;;;3.30;3.05;;;;;;;;;;5023949;28;20053;-87
2022/12/21 10:42:09;;;;;;;6.35;5.03;;;;;;;;;;5046375;28;20446;-88
2022/12/21 10:44:39;;;;;;;4.85;4.55;;;;;;;;;;5028639;28;20041;-87
2022/12/21 10:47:11;;;;;;;7.15;6.10;;;;;;;;;;5034486;28;20107;-87
2022/12/21 10:49:38;;;;;;;4.60;2.80;;;;;;;;;;5029366;28;20104;-87
2022/12/21 10:52:31;;;;;;;4.85;4.45;;;;;;;;;;5026007;28;20049;-88
2022/12/21 10:54:58;;;;;;;5.55;5.00;;;;;;;;;;5032494;28;20119;-88
2022/12/21 10:57:28;;;;;;;5.72;5.03;;;;;;;;;;5038417;28;20548;-87
2022/12/21 10:59:54;;;;;;;4.43;4.03;;;;;;;;;;5031747;28;20535;-87
2022/12/21 11:02:33;;;;;;;5.13;3.42;;;;;;;;;;5012537;28;20050;-87
2022/12/21 11:04:59;;;;;;;4.22;3.92;;;;;;;;;;5013142;28;20049;-87
2022/12/21 11:07:26;;;;;;;2.88;2.67;;;;;;;;;;5013558;28;20054;-87
2022/12/21 11:09:57;;;;;;;4.55;2.80;;;;;;;;;;5012972;28;20502;-87
2022/12/21 11:12:25;;;;;;;4.97;3.03;;;;;;;;;;5026087;28;20049;-87
2022/12/21 11:14:53;;;;;;;2.70;2.60;;;;;;;;;;5032834;28;20049;-87
2022/12/21 11:17:21;;;;;;;7.18;3.80;;;;;;;;;;5032542;28;20053;-86
2022/12/21 11:19:48;;;;;;;3.85;3.17;;;;;;;;;;5030571;28;20115;-86
2022/12/21 11:22:18;;;;;;;4.75;4.45;;;;;;;;;;5032203;28;20050;-87
2022/12/21 11:24:45;;;;;;;4.55;4.20;;;;;;;;;;5025274;28;20058;-87
2022/12/21 11:27:23;;;;;;;2.90;2.70;;;;;;;;;;5016381;28;20128;-87
2022/12/21 11:29:51;;;;;;;3.72;3.45;;;;;;;;;;5009892;28;20046;-87
2022/12/21 11:32:21;;;;;;;3.92;2.75;;;;;;;;;;5025759;28;20099;-87
2022/12/21 11:34:49;;;;;;;4.05;3.33;;;;;;;;;;5033533;28;20458;-87
2022/12/21 11:37:23;;;;;;;5.35;3.33;;;;;;;;;;5027236;28;20049;-87
2022/12/21 11:39:50;;;;;;;4.22;3.92;;;;;;;;;;5014188;28;20585;-87
2022/12/21 11:42:17;;;;;;;5.18;4.90;;;;;;;;;;5021045;28;20049;-87
2022/12/21 11:44:44;;;;;;;4.25;3.95;;;;;;;;;;5023635;28;20057;-86
2022/12/21 11:47:21;;;;;;;4.03;3.63;;;;;;;;;;5030857;28;20049;-86
2022/12/21 11:50:08;;;;;;;4.38;4.05;;;;;;;;;;5031816;28;20045;-89
2022/12/21 11:52:40;;;;;;;6.30;4.43;;;;;;;;;;5031165;28;20049;-88
2022/12/21 11:55:10;;;;;;;6.10;5.70;;;;;;;;;;5030008;28;20107;-87
2022/12/21 11:57:40;;;;;;;4.40;4.10;;;;;;;;;;5032095;28;20111;-86
2022/12/21 12:00:08;;;;;;;4.25;3.88;;;;;;;;;;5031452;28;20045;-86
2022/12/21 12:02:42;;;;;;;5.22;4.82;;;;;;;;;;5031675;28;20095;-86
2022/12/21 12:05:15;;;;;;;6.07;5.47;;;;;;;;;;5029183;28;20053;-86
2022/12/21 12:07:47;;;;;;;5.35;4.90;;;;;;;;;;5027489;28;20438;-86
2022/12/21 12:10:39;;;;;;;4.32;4.03;;;;;;;;;;5021444;28;20049;-88
2022/12/21 12:13:11;;;;;;;4.85;4.40;;;;;;;;;;5026985;28;20179;-88
2022/12/21 12:15:43;;;;;;;6.13;5.57;;;;;;;;;;5011449;28;20108;-86
2022/12/21 12:18:20;;;;;;;5.18;4.78;;;;;;;;;;5023606;28;20045;-87
2022/12/21 12:20:57;;;;;;;3.97;3.30;;;;;;;;;;5018172;28;20050;-87
2022/12/21 12:23:28;;;;;;;4.95;4.65;;;;;;;;;;5028730;28;20057;-87
2022/12/21 12:26:05;;;;;;;10.18;5.88;;;;;;;;;;5023588;28;20057;-87
2022/12/21 12:28:42;;;;;;;7.10;4.15;;;;;;;;;;5031275;28;20050;-87
2022/12/21 12:31:15;;;;;;;4.32;3.92;;;;;;;;;;5015606;28;20558;-87
2022/12/21 12:33:49;;;;;;;2.60;2.42;;;;;;;;;;5011285;28;20054;-87
2022/12/21 12:36:22;;;;;;;3.30;3.05;;;;;;;;;;5011376;28;20050;-87
2022/12/21 12:38:53;;;;;;;3.38;3.15;;;;;;;;;;5011076;28;20077;-87
2022/12/21 12:41:26;;;;;;;3.97;3.75;;;;;;;;;;5011509;28;20135;-87
2022/12/21 12:43:55;;;;;;;5.00;4.63;;;;;;;;;;5023296;28;20085;-87
2022/12/21 12:46:25;;;;;;;3.85;3.60;;;;;;;;;;5020253;28;20104;-87
2022/12/21 12:48:57;;;;;;;6.25;5.85;;;;;;;;;;5026501;28;20406;-87
2022/12/21 12:51:28;;;;;;;3.03;2.83;;;;;;;;;;5024239;28;20058;-87
2022/12/21 12:53:57;;;;;;;2.95;2.75;;;;;;;;;;5022961;28;20499;-87
2022/12/21 12:56:27;;;;;;;4.93;4.60;;;;;;;;;;5030926;28;20049;-87
2022/12/21 12:58:57;;;;;;;6.70;5.18;;;;;;;;;;5028815;28;20057;-87
2022/12/21 13:01:26;;;;;;;5.72;4.43;;;;;;;;;;5015044;28;20046;-87
2022/12/21 13:04:05;;;;;;;6.47;5.22;;;;;;;;;;5020246;28;20568;-87
2022/12/21 13:06:39;;;;;;;4.10;3.90;;;;;;;;;;5025123;28;20053;-87
2022/12/21 13:09:09;;;;;;;5.28;4.75;;;;;;;;;;5022904;28;20045;-87
2022/12/21 13:11:43;;;;;;;5.10;4.80;;;;;;;;;;5031812;28;20083;-87
2022/12/21 13:14:13;;;;;;;3.78;3.42;;;;;;;;;;5033281;28;20642;-88
2022/12/21 13:16:44;;;;;;;4.68;4.38;;;;;;;;;;5029360;28;20112;-87
2022/12/21 13:19:15;;;;;;;5.55;4.25;;;;;;;;;;5034501;28;20053;-88
2022/12/21 13:21:43;;;;;;;3.70;3.50;;;;;;;;;;5034471;28;20099;-88
2022/12/21 13:24:12;;;;;;;2.92;2.70;;;;;;;;;;5034951;28;20057;-86
2022/12/21 13:26:40;;;;;;;4.50;4.20;;;;;;;;;;5033735;28;20053;-86
2022/12/21 13:29:10;;;;;;;12.05;4.22;;;;;;;;;;5033836;28;20107;-87
2022/12/21 13:31:40;;;;;;;3.42;3.22;;;;;;;;;;5018317;28;20136;-87
2022/12/21 13:34:11;;;;;;;6.32;6.00;;;;;;;;;;5014500;28;20056;-88
2022/12/21 13:36:39;;;;;;;3.55;3.22;;;;;;;;;;5014376;28;20053;-88
2022/12/21 13:39:10;;;;;;;3.83;3.55;;;;;;;;;;5014345;28;20061;-88
2022/12/21 13:41:38;;;;;;;5.15;4.70;;;;;;;;;;5029766;28;20560;-88
2022/12/21 13:44:10;;;;;;;5.43;4.90;;;;;;;;;;5034205;28;20075;-88
2022/12/21 13:46:37;;;;;;;4.53;4.22;;;;;;;;;;5033737;28;20057;-87
2022/12/21 13:49:13;;;;;;;10.65;5.47;;;;;;;;;;5034162;28;20128;-87
2022/12/21 13:51:42;;;;;;;5.15;4.10;;;;;;;;;;5039946;28;20123;-87
2022/12/21 13:54:14;;;;;;;7.15;5.50;;;;;;;;;;5053987;28;20099;-87
2022/12/21 13:56:46;;;;;;;5.45;4.57;;;;;;;;;;5032748;28;20058;-86
2022/12/21 13:59:16;;;;;;;7.13;5.97;;;;;;;;;;5025856;28;20045;-86
2022/12/21 14:01:48;;;;;;;4.55;4.18;;;;;;;;;;5016670;28;20088;-86
2022/12/21 14:04:18;;;;;;;5.68;5.22;;;;;;;;;;5023622;28;20049;-86
2022/12/21 14:07:01;;;;;;;7.50;6.68;;;;;;;;;;5014477;28;20527;-86
2022/12/21 14:09:34;;;;;;;5.30;4.88;;;;;;;;;;5014779;28;20100;-86
2022/12/21 14:12:13;;;;;;;6.88;6.45;;;;;;;;;;5014232;28;20128;-86
2022/12/21 14:14:47;;;;;;;4.50;4.03;;;;;;;;;;5013416;28;20557;-85
2022/12/21 14:17:17;;;;;;;4.70;4.35;;;;;;;;;;5013193;28;20081;-88
2022/12/21 14:19:50;;;;;;;7.03;5.93;;;;;;;;;;5052280;28;20048;-88
2022/12/21 14:22:31;;;;;;;7.13;6.47;;;;;;;;;;5033695;28;20115;-87
2022/12/21 14:25:00;;;;;;;3.65;3.35;;;;;;;;;;5033116;28;20111;-88
2022/12/21 14:27:27;;;;;;;6.32;4.45;;;;;;;;;;5013426;28;20431;-87
2022/12/21 14:30:04;;;;;;;4.70;4.38;;;;;;;;;;5013348;28;20050;-88
2022/12/21 14:32:30;;;;;;;3.60;3.38;;;;;;;;;;5013661;28;20054;-87
2022/12/21 14:34:58;;;;;;;12.45;8.32;;;;;;;;;;5029270;28;20499;-87
2022/12/21 14:37:26;;;;;;;5.78;5.38;;;;;;;;;;5014374;28;20093;-87
2022/12/21 14:40:17;;;;;;;6.47;4.63;;;;;;;;;;5013167;28;20108;-87
2022/12/21 14:42:49;;;;;;;4.93;4.63;;;;;;;;;;5043025;28;20049;-88
2022/12/21 14:45:17;;;;;;;6.60;3.55;;;;;;;;;;5050612;28;20438;-88
2022/12/21 14:47:57;;;;;;;6.53;6.03;;;;;;;;;;5013860;28;20050;-87
2022/12/21 14:50:42;;;;;;;2.85;2.65;;;;;;;;;;5014917;28;20088;-86
2022/12/21 14:53:18;;;;;;;3.45;2.97;;;;;;;;;;5033049;28;20045;-86
2022/12/21 14:55:46;;;;;;;2.80;2.60;;;;;;;;;;5037549;28;20045;-87
2022/12/21 14:58:19;;;;;;;3.67;3.03;;;;;;;;;;5023529;28;20537;-87
2022/12/21 15:01:00;;;;;;;2.67;2.47;;;;;;;;;;5013869;28;20121;-87